createdAt,value
2024-03-20T00:00:53.729Z,621.00
2024-03-20T00:01:53.698Z,619.00
2024-03-20T00:02:53.687Z,620.00
2024-03-20T00:03:53.700Z,625.00
2024-03-20T00:04:53.690Z,625.00
2024-03-20T00:05:53.721Z,620.00
2024-03-20T00:06:53.712Z,621.00
2024-03-20T00:07:53.718Z,622.00
2024-03-20T00:08:53.728Z,625.00
2024-03-20T00:09:53.703Z,622.00
2024-03-20T00:10:53.724Z,621.00
2024-03-20T00:11:53.724Z,623.00
2024-03-20T00:12:53.751Z,621.00
2024-03-20T00:13:53.688Z,617.00
2024-03-20T00:14:53.714Z,620.00
2024-03-20T00:15:53.725Z,627.00
2024-03-20T00:16:53.722Z,622.00
2024-03-20T00:17:53.717Z,624.00
2024-03-20T00:18:53.714Z,621.00
2024-03-20T00:19:53.742Z,619.00
2024-03-20T00:20:53.710Z,622.00
2024-03-20T00:21:53.735Z,621.00
2024-03-20T00:22:53.729Z,622.00
2024-03-20T00:23:53.721Z,619.00
2024-03-20T00:24:53.748Z,617.00
2024-03-20T00:25:53.740Z,621.00
2024-03-20T00:26:55.514Z,622.00
2024-03-20T00:27:53.758Z,619.00
2024-03-20T00:28:53.740Z,625.00
2024-03-20T00:29:53.726Z,620.00
2024-03-20T00:30:53.778Z,623.00
2024-03-20T00:31:53.751Z,622.00
2024-03-20T00:32:53.721Z,617.00
2024-03-20T00:33:53.731Z,622.00
2024-03-20T00:34:53.763Z,622.00
2024-03-20T00:35:53.754Z,623.00
2024-03-20T00:36:53.756Z,618.00
2024-03-20T00:37:53.768Z,621.00
2024-03-20T00:38:53.781Z,623.00
2024-03-20T00:39:53.783Z,622.00
2024-03-20T00:40:53.785Z,623.00
2024-03-20T00:41:53.819Z,626.00
2024-03-20T00:42:53.854Z,620.00
2024-03-20T00:43:53.909Z,622.00
2024-03-20T00:44:53.939Z,620.00
2024-03-20T00:45:53.991Z,619.00
2024-03-20T00:46:54.048Z,625.00
2024-03-20T00:47:54.052Z,620.00
2024-03-20T00:48:54.146Z,621.00
2024-03-20T00:49:54.215Z,619.00
2024-03-20T00:50:54.229Z,619.00
2024-03-20T00:51:54.263Z,621.00
2024-03-20T00:52:54.331Z,618.00
2024-03-20T00:53:54.390Z,622.00
2024-03-20T00:54:54.461Z,621.00
2024-03-20T00:55:54.505Z,622.00
2024-03-20T00:56:54.571Z,618.00
2024-03-20T00:57:54.582Z,622.00
2024-03-20T00:58:54.612Z,619.00
2024-03-20T00:59:54.667Z,622.00
2024-03-20T01:00:54.731Z,624.00
2024-03-20T01:01:54.777Z,622.00
2024-03-20T01:02:54.828Z,618.00
2024-03-20T01:03:54.926Z,619.00
2024-03-20T01:04:54.946Z,619.00
2024-03-20T01:05:54.988Z,621.00
2024-03-20T01:06:55.006Z,619.00
2024-03-20T01:07:55.077Z,623.00
2024-03-20T01:08:55.132Z,623.00
2024-03-20T01:09:55.170Z,620.00
2024-03-20T01:10:55.229Z,624.00
2024-03-20T01:11:55.297Z,621.00
2024-03-20T01:12:55.310Z,622.00
2024-03-20T01:13:55.340Z,622.00
2024-03-20T01:14:55.414Z,617.00
2024-03-20T01:15:55.423Z,623.00
2024-03-20T01:16:55.477Z,620.00
2024-03-20T01:17:55.528Z,619.00
2024-03-20T01:18:55.569Z,620.00
2024-03-20T01:19:55.624Z,623.00
2024-03-20T01:20:55.674Z,621.00
2024-03-20T01:21:55.717Z,618.00
2024-03-20T01:22:55.767Z,618.00
2024-03-20T01:23:55.843Z,622.00
2024-03-20T01:24:55.893Z,616.00
2024-03-20T01:25:55.934Z,620.00
2024-03-20T01:26:55.961Z,626.00
2024-03-20T01:27:56.021Z,618.00
2024-03-20T01:28:56.050Z,619.00
2024-03-20T01:29:56.094Z,622.00
2024-03-20T01:30:56.167Z,622.00
2024-03-20T01:31:56.206Z,624.00
2024-03-20T01:32:56.280Z,623.00
2024-03-20T01:33:56.300Z,616.00
2024-03-20T01:34:56.367Z,620.00
2024-03-20T01:35:56.413Z,621.00
2024-03-20T01:36:56.457Z,618.00
2024-03-20T01:37:56.530Z,622.00
2024-03-20T01:38:56.569Z,615.00
2024-03-20T01:39:56.606Z,625.00
2024-03-20T01:40:56.673Z,621.00
2024-03-20T01:41:56.696Z,620.00
2024-03-20T01:42:56.744Z,622.00
2024-03-20T01:43:56.779Z,624.00
2024-03-20T01:44:56.819Z,618.00
2024-03-20T01:45:56.899Z,619.00
2024-03-20T01:46:56.962Z,621.00
2024-03-20T01:47:57.022Z,621.00
2024-03-20T01:48:57.059Z,618.00
2024-03-20T01:49:57.090Z,618.00
2024-03-20T01:50:57.156Z,617.00
2024-03-20T01:51:57.210Z,623.00
2024-03-20T01:52:57.220Z,619.00
2024-03-20T01:53:57.261Z,620.00
2024-03-20T01:54:57.322Z,622.00
2024-03-20T01:55:57.386Z,618.00
2024-03-20T01:56:57.446Z,618.00
2024-03-20T01:57:57.492Z,622.00
2024-03-20T01:58:57.533Z,619.00
2024-03-20T01:59:57.564Z,623.00
2024-03-20T02:00:57.644Z,621.00
2024-03-20T02:01:57.705Z,623.00
2024-03-20T02:02:57.735Z,617.00
2024-03-20T02:03:57.766Z,621.00
2024-03-20T02:04:57.866Z,623.00
2024-03-20T02:05:57.928Z,617.00
2024-03-20T02:06:57.920Z,619.00
2024-03-20T02:07:57.963Z,624.00
2024-03-20T02:08:58.036Z,616.00
2024-03-20T02:09:58.104Z,622.00
2024-03-20T02:10:58.122Z,624.00
2024-03-20T02:11:58.220Z,622.00
2024-03-20T02:12:58.233Z,620.00
2024-03-20T02:13:58.286Z,623.00
2024-03-20T02:14:58.333Z,622.00
2024-03-20T02:15:58.393Z,616.00
2024-03-20T02:16:58.394Z,622.00
2024-03-20T02:17:58.478Z,621.00
2024-03-20T02:18:58.530Z,623.00
2024-03-20T02:19:58.557Z,619.00
2024-03-20T02:20:58.643Z,622.00
2024-03-20T02:21:59.259Z,622.00
2024-03-20T02:22:58.720Z,623.00
2024-03-20T02:23:58.756Z,622.00
2024-03-20T02:24:58.802Z,621.00
2024-03-20T02:25:58.849Z,621.00
2024-03-20T02:26:58.933Z,620.00
2024-03-20T02:27:59.044Z,618.00
2024-03-20T02:28:58.958Z,619.00
2024-03-20T02:29:59.058Z,616.00
2024-03-20T02:30:59.112Z,623.00
2024-03-20T02:31:59.119Z,620.00
2024-03-20T02:32:59.161Z,623.00
2024-03-20T02:33:59.235Z,620.00
2024-03-20T02:34:59.238Z,618.00
2024-03-20T02:35:59.290Z,615.00
2024-03-20T02:36:59.331Z,618.00
2024-03-20T02:37:59.369Z,616.00
2024-03-20T02:38:59.432Z,622.00
2024-03-20T02:39:59.442Z,622.00
2024-03-20T02:40:59.517Z,618.00
2024-03-20T02:41:59.558Z,618.00
2024-03-20T02:42:59.606Z,620.00
2024-03-20T02:43:59.655Z,618.00
2024-03-20T02:44:59.688Z,619.00
2024-03-20T02:45:59.772Z,621.00
2024-03-20T02:46:59.809Z,616.00
2024-03-20T02:47:59.901Z,618.00
2024-03-20T02:48:59.915Z,616.00
2024-03-20T02:49:59.959Z,622.00
2024-03-20T02:51:00.034Z,621.00
2024-03-20T02:52:00.081Z,620.00
2024-03-20T02:53:00.140Z,617.00
2024-03-20T02:54:00.264Z,620.00
2024-03-20T02:55:00.247Z,618.00
2024-03-20T02:56:00.257Z,620.00
2024-03-20T02:57:00.320Z,616.00
2024-03-20T02:58:00.372Z,614.00
2024-03-20T02:59:00.406Z,619.00
2024-03-20T03:00:00.448Z,618.00
2024-03-20T03:01:00.505Z,619.00
2024-03-20T03:02:00.572Z,615.00
2024-03-20T03:03:00.598Z,618.00
2024-03-20T03:04:00.676Z,617.00
2024-03-20T03:05:00.722Z,620.00
2024-03-20T03:06:00.789Z,615.00
2024-03-20T03:07:00.821Z,621.00
2024-03-20T03:08:00.872Z,620.00
2024-03-20T03:09:00.909Z,617.00
2024-03-20T03:10:00.939Z,619.00
2024-03-20T03:11:01.048Z,617.00
2024-03-20T03:12:01.042Z,621.00
2024-03-20T03:13:01.117Z,618.00
2024-03-20T03:14:01.162Z,610.00
2024-03-20T03:15:07.067Z,617.00
2024-03-20T03:16:02.202Z,617.00
2024-03-20T03:17:01.204Z,617.00
2024-03-20T03:18:01.392Z,618.00
2024-03-20T03:19:01.178Z,615.00
2024-03-20T03:20:01.198Z,619.00
2024-03-20T03:21:01.208Z,616.00
2024-03-20T03:22:01.217Z,620.00
2024-03-20T03:23:01.222Z,619.00
2024-03-20T03:24:01.174Z,614.00
2024-03-20T03:25:01.164Z,619.00
2024-03-20T03:26:01.199Z,614.00
2024-03-20T03:27:01.184Z,614.00
2024-03-20T03:28:01.177Z,614.00
2024-03-20T03:29:01.208Z,617.00
2024-03-20T03:30:01.270Z,618.00
2024-03-20T03:31:01.328Z,616.00
2024-03-20T03:32:01.392Z,620.00
2024-03-20T03:33:01.405Z,621.00
2024-03-20T03:34:01.453Z,614.00
2024-03-20T03:35:01.508Z,620.00
2024-03-20T03:36:01.551Z,621.00
2024-03-20T03:37:01.591Z,619.00
2024-03-20T03:38:01.648Z,617.00
2024-03-20T03:39:01.673Z,615.00
2024-03-20T03:40:01.744Z,617.00
2024-03-20T03:41:01.806Z,612.00
2024-03-20T03:42:01.861Z,616.00
2024-03-20T03:43:01.918Z,616.00
2024-03-20T03:44:01.987Z,616.00
2024-03-20T03:45:02.013Z,616.00
2024-03-20T03:46:02.113Z,617.00
2024-03-20T03:47:02.110Z,615.00
2024-03-20T03:48:02.147Z,616.00
2024-03-20T03:49:02.225Z,619.00
2024-03-20T03:50:02.237Z,617.00
2024-03-20T03:51:02.335Z,618.00
2024-03-20T03:52:02.355Z,623.00
2024-03-20T03:53:02.385Z,620.00
2024-03-20T03:54:02.421Z,618.00
2024-03-20T03:55:02.459Z,616.00
2024-03-20T03:56:02.560Z,614.00
2024-03-20T03:57:02.586Z,618.00
2024-03-20T03:58:02.641Z,614.00
2024-03-20T03:59:02.671Z,616.00
2024-03-20T04:00:02.698Z,615.00
2024-03-20T04:01:02.761Z,613.00
2024-03-20T04:02:02.825Z,618.00
2024-03-20T04:03:02.822Z,612.00
2024-03-20T04:04:02.892Z,619.00
2024-03-20T04:05:02.952Z,616.00
2024-03-20T04:06:03.010Z,613.00
2024-03-20T04:07:03.027Z,619.00
2024-03-20T04:08:03.114Z,619.00
2024-03-20T04:09:03.146Z,619.00
2024-03-20T04:10:03.212Z,617.00
2024-03-20T04:11:03.214Z,615.00
2024-03-20T04:12:03.287Z,615.00
2024-03-20T04:13:03.304Z,616.00
2024-03-20T04:14:03.384Z,615.00
2024-03-20T04:15:03.439Z,619.00
2024-03-20T04:16:03.460Z,615.00
2024-03-20T04:17:03.569Z,614.00
2024-03-20T04:18:03.597Z,616.00
2024-03-20T04:19:03.661Z,620.00
2024-03-20T04:20:03.672Z,618.00
2024-03-20T04:21:03.830Z,608.00
2024-03-20T04:22:03.772Z,615.00
2024-03-20T04:23:03.842Z,618.00
2024-03-20T04:24:03.890Z,617.00
2024-03-20T04:25:03.945Z,620.00
2024-03-20T04:26:03.997Z,619.00
2024-03-20T04:27:03.999Z,613.00
2024-03-20T04:28:04.068Z,613.00
2024-03-20T04:29:04.130Z,615.00
2024-03-20T04:30:11.355Z,600.00
2024-03-20T04:31:18.717Z,600.00
2024-03-20T04:32:18.796Z,600.00
2024-03-20T04:33:18.807Z,600.00
2024-03-20T04:34:18.869Z,600.00
2024-03-20T04:35:18.919Z,600.00
2024-03-20T04:36:18.969Z,602.00
2024-03-20T04:37:18.975Z,603.00
2024-03-20T04:38:19.029Z,601.00
2024-03-20T04:39:19.101Z,606.00
2024-03-20T04:40:19.123Z,608.00
2024-03-20T04:41:19.215Z,599.00
2024-03-20T04:42:19.262Z,603.00
2024-03-20T04:43:19.310Z,602.00
2024-03-20T04:44:19.360Z,604.00
2024-03-20T04:45:19.407Z,607.00
2024-03-20T04:46:19.468Z,600.00
2024-03-20T04:47:19.511Z,604.00
2024-03-20T04:48:19.598Z,603.00
2024-03-20T04:49:19.638Z,606.00
2024-03-20T04:50:19.666Z,603.00
2024-03-20T04:51:19.747Z,604.00
2024-03-20T04:52:19.784Z,604.00
2024-03-20T04:53:19.842Z,604.00
2024-03-20T04:54:22.057Z,603.00
2024-03-20T04:55:19.881Z,600.00
2024-03-20T04:56:19.893Z,603.00
2024-03-20T04:57:19.909Z,605.00
2024-03-20T04:58:19.869Z,606.00
2024-03-20T04:59:19.879Z,604.00
2024-03-20T05:00:19.923Z,604.00
2024-03-20T05:01:19.901Z,606.00
2024-03-20T05:02:19.901Z,604.00
2024-03-20T05:03:19.925Z,607.00
2024-03-20T05:04:19.900Z,603.00
2024-03-20T05:05:19.890Z,604.00
2024-03-20T05:06:19.899Z,608.00
2024-03-20T05:07:19.935Z,607.00
2024-03-20T05:08:19.910Z,608.00
2024-03-20T05:09:19.922Z,606.00
2024-03-20T05:10:19.924Z,603.00
2024-03-20T05:11:19.942Z,603.00
2024-03-20T05:12:19.950Z,605.00
2024-03-20T05:13:19.906Z,606.00
2024-03-20T05:14:19.914Z,604.00
2024-03-20T05:15:19.904Z,603.00
2024-03-20T05:16:19.936Z,606.00
2024-03-20T05:17:19.955Z,603.00
2024-03-20T05:18:19.949Z,604.00
2024-03-20T05:19:19.915Z,603.00
2024-03-20T05:20:19.944Z,607.00
2024-03-20T05:21:19.935Z,601.00
2024-03-20T05:22:19.913Z,605.00
2024-03-20T05:23:19.921Z,605.00
2024-03-20T05:24:19.917Z,602.00
2024-03-20T05:25:19.939Z,603.00
2024-03-20T05:26:19.947Z,601.00
2024-03-20T05:27:20.009Z,604.00
2024-03-20T05:28:19.965Z,607.00
2024-03-20T05:29:19.912Z,604.00
2024-03-20T05:30:19.924Z,609.00
2024-03-20T05:31:19.949Z,605.00
2024-03-20T05:32:19.908Z,605.00
2024-03-20T05:33:19.951Z,603.00
2024-03-20T05:34:19.952Z,609.00
2024-03-20T05:35:19.939Z,601.00
2024-03-20T05:36:19.975Z,603.00
2024-03-20T05:37:19.959Z,607.00
2024-03-20T05:38:19.961Z,606.00
2024-03-20T05:39:19.937Z,608.00
2024-03-20T05:40:19.933Z,602.00
2024-03-20T05:41:19.953Z,604.00
2024-03-20T05:42:19.958Z,606.00
2024-03-20T05:43:19.918Z,604.00
2024-03-20T05:44:19.963Z,609.00
2024-03-20T05:45:19.966Z,609.00
2024-03-20T05:46:19.922Z,605.00
2024-03-20T05:47:19.985Z,607.00
2024-03-20T05:48:19.937Z,606.00
2024-03-20T05:49:19.988Z,607.00
2024-03-20T05:50:20.061Z,607.00
2024-03-20T05:51:20.108Z,603.00
2024-03-20T05:52:20.136Z,602.00
2024-03-20T05:53:20.204Z,605.00
2024-03-20T05:54:20.245Z,608.00
2024-03-20T05:55:20.263Z,605.00
2024-03-20T05:56:20.315Z,606.00
2024-03-20T05:57:20.408Z,605.00
2024-03-20T05:58:20.415Z,603.00
2024-03-20T05:59:20.435Z,604.00
2024-03-20T06:00:20.494Z,607.00
2024-03-20T06:01:20.534Z,604.00
2024-03-20T06:02:20.553Z,605.00
2024-03-20T06:03:20.596Z,602.00
2024-03-20T06:04:20.624Z,604.00
2024-03-20T06:05:23.361Z,609.00
2024-03-20T06:06:20.653Z,610.00
2024-03-20T06:07:20.674Z,610.00
2024-03-20T06:08:20.661Z,607.00
2024-03-20T06:09:20.653Z,609.00
2024-03-20T06:10:20.661Z,610.00
2024-03-20T06:11:20.682Z,609.00
2024-03-20T06:12:20.669Z,607.00
2024-03-20T06:13:20.655Z,611.00
2024-03-20T06:14:20.673Z,611.00
2024-03-20T06:15:20.646Z,608.00
2024-03-20T06:16:20.669Z,608.00
2024-03-20T06:17:20.700Z,606.00
2024-03-20T06:18:20.662Z,613.00
2024-03-20T06:19:20.694Z,608.00
2024-03-20T06:20:20.704Z,609.00
2024-03-20T06:21:20.667Z,607.00
2024-03-20T06:22:20.717Z,614.00
2024-03-20T06:23:20.669Z,612.00
2024-03-20T06:24:20.689Z,610.00
2024-03-20T06:25:20.672Z,605.00
2024-03-20T06:26:20.677Z,607.00
2024-03-20T06:27:20.696Z,608.00
2024-03-20T06:28:23.821Z,611.00
2024-03-20T06:29:20.686Z,611.00
2024-03-20T06:30:20.687Z,611.00
2024-03-20T06:31:20.684Z,609.00
2024-03-20T06:32:20.701Z,613.00
2024-03-20T06:33:20.685Z,612.00
2024-03-20T06:34:20.717Z,611.00
2024-03-20T06:35:20.692Z,613.00
2024-03-20T06:36:20.703Z,614.00
2024-03-20T06:37:20.732Z,608.00
2024-03-20T06:38:20.744Z,613.00
2024-03-20T06:39:20.712Z,609.00
2024-03-20T06:40:20.720Z,609.00
2024-03-20T06:41:20.730Z,609.00
2024-03-20T06:42:20.705Z,611.00
2024-03-20T06:43:20.715Z,611.00
2024-03-20T06:44:20.739Z,612.00
2024-03-20T06:45:20.733Z,610.00
2024-03-20T06:46:20.738Z,610.00
2024-03-20T06:47:20.717Z,610.00
2024-03-20T06:48:20.775Z,608.00
2024-03-20T06:49:20.711Z,610.00
2024-03-20T06:50:20.728Z,613.00
2024-03-20T06:51:20.722Z,614.00
2024-03-20T06:52:22.029Z,613.00
2024-03-20T06:53:20.739Z,613.00
2024-03-20T06:54:20.746Z,614.00
2024-03-20T06:55:20.761Z,617.00
2024-03-20T06:56:20.762Z,625.00
2024-03-20T06:57:20.731Z,628.00
2024-03-20T06:58:20.755Z,635.00
2024-03-20T06:59:20.745Z,641.00
2024-03-20T07:00:20.766Z,641.00
2024-03-20T07:01:20.756Z,644.00
2024-03-20T07:02:20.767Z,655.00
2024-03-20T07:03:20.779Z,662.00
2024-03-20T07:04:24.706Z,668.00
2024-03-20T07:05:20.829Z,668.00
2024-03-20T07:06:20.818Z,671.00
2024-03-20T07:07:20.857Z,679.00
2024-03-20T07:08:20.839Z,701.00
2024-03-20T07:09:20.860Z,736.00
2024-03-20T07:10:20.826Z,745.00
2024-03-20T07:11:20.834Z,760.00
2024-03-20T07:12:20.841Z,781.00
2024-03-20T07:13:20.851Z,795.00
2024-03-20T07:14:20.826Z,800.00
2024-03-20T07:15:20.817Z,820.00
2024-03-20T07:16:20.848Z,828.00
2024-03-20T07:17:20.844Z,842.00
2024-03-20T07:18:20.871Z,852.00
2024-03-20T07:19:20.846Z,870.00
2024-03-20T07:20:20.843Z,883.00
2024-03-20T07:21:20.854Z,891.00
2024-03-20T07:22:20.868Z,918.00
2024-03-20T07:23:20.856Z,934.00
2024-03-20T07:24:20.872Z,933.00
2024-03-20T07:25:20.892Z,939.00
2024-03-20T07:26:20.941Z,937.00
2024-03-20T07:27:20.963Z,945.00
2024-03-20T07:28:20.994Z,946.00
2024-03-20T07:29:21.018Z,959.00
2024-03-20T07:30:21.065Z,969.00
2024-03-20T07:31:21.082Z,974.00
2024-03-20T07:32:21.122Z,980.00
2024-03-20T07:33:21.154Z,1004.00
2024-03-20T07:34:21.181Z,1016.00
2024-03-20T07:35:21.186Z,1024.00
2024-03-20T07:36:21.218Z,1039.00
2024-03-20T07:37:21.229Z,1024.00
2024-03-20T07:38:21.244Z,991.00
2024-03-20T07:39:21.306Z,984.00
2024-03-20T07:40:21.237Z,995.00
2024-03-20T07:41:21.292Z,1017.00
2024-03-20T07:42:21.334Z,1056.00
2024-03-20T07:43:21.318Z,1105.00
2024-03-20T07:44:21.411Z,1132.00
2024-03-20T07:45:21.529Z,1167.00
2024-03-20T07:46:21.505Z,1194.00
2024-03-20T07:47:21.704Z,1232.00
2024-03-20T07:48:21.613Z,1273.00
2024-03-20T07:49:22.234Z,1313.00
2024-03-20T07:50:21.671Z,1343.00
2024-03-20T07:51:21.741Z,1388.00
2024-03-20T07:52:24.112Z,1428.00
2024-03-20T07:53:21.718Z,1495.00
2024-03-20T07:54:21.767Z,1538.00
2024-03-20T07:55:21.741Z,1576.00
2024-03-20T07:56:21.738Z,1603.00
2024-03-20T07:57:21.747Z,1613.00
2024-03-20T07:58:21.746Z,1638.00
2024-03-20T07:59:21.788Z,1658.00
2024-03-20T08:00:21.749Z,1656.00
2024-03-20T08:01:21.762Z,1670.00
2024-03-20T08:02:21.768Z,1672.00
2024-03-20T08:03:21.751Z,1656.00
2024-03-20T08:04:21.770Z,1621.00
2024-03-20T08:05:21.769Z,1618.00
2024-03-20T08:06:21.788Z,1598.00
2024-03-20T08:07:21.764Z,1586.00
2024-03-20T08:08:21.776Z,1594.00
2024-03-20T08:09:21.761Z,1601.00
2024-03-20T08:10:21.762Z,1552.00
2024-03-20T08:11:21.781Z,1506.00
2024-03-20T08:12:21.813Z,1466.00
2024-03-20T08:13:21.753Z,1423.00
2024-03-20T08:14:21.755Z,1380.00
2024-03-20T08:15:21.766Z,1336.00
2024-03-20T08:16:21.808Z,1291.00
2024-03-20T08:17:22.036Z,1266.00
2024-03-20T08:18:21.789Z,1230.00
2024-03-20T08:19:21.772Z,1206.00
2024-03-20T08:20:21.784Z,1182.00
2024-03-20T08:21:21.798Z,1155.00
2024-03-20T08:22:21.772Z,1168.00
2024-03-20T08:23:21.799Z,1148.00
2024-03-20T08:24:21.811Z,1127.00
2024-03-20T08:25:21.812Z,1113.00
2024-03-20T08:26:21.776Z,1089.00
2024-03-20T08:27:22.777Z,1081.00
2024-03-20T08:28:21.794Z,1074.00
2024-03-20T08:29:21.814Z,1078.00
2024-03-20T08:30:21.808Z,1076.00
2024-03-20T08:31:21.851Z,1047.00
2024-03-20T08:32:21.815Z,1055.00
2024-03-20T08:33:21.805Z,1061.00
2024-03-20T08:34:21.810Z,1055.00
2024-03-20T08:35:21.817Z,1058.00
2024-03-20T08:36:21.839Z,1034.00
2024-03-20T08:37:21.818Z,1048.00
2024-03-20T08:38:21.870Z,1048.00
2024-03-20T08:39:21.825Z,1039.00
2024-03-20T08:40:21.813Z,1031.00
2024-03-20T08:41:21.813Z,1029.00
2024-03-20T08:42:21.865Z,1031.00
2024-03-20T08:43:21.848Z,1039.00
2024-03-20T08:44:21.938Z,1040.00
2024-03-20T08:45:21.889Z,1046.00
2024-03-20T08:46:21.927Z,1058.00
2024-03-20T08:47:21.828Z,1043.00
2024-03-20T08:48:21.854Z,1052.00
2024-03-20T08:49:21.950Z,1041.00
2024-03-20T08:50:21.842Z,1041.00
2024-03-20T08:51:22.267Z,1055.00
2024-03-20T08:52:21.883Z,1040.00
2024-03-20T08:53:21.851Z,1062.00
2024-03-20T08:54:21.842Z,1049.00
2024-03-20T08:55:21.859Z,1037.00
2024-03-20T08:56:21.856Z,1039.00
2024-03-20T08:57:21.856Z,1037.00
2024-03-20T08:58:21.883Z,1007.00
2024-03-20T08:59:21.842Z,984.00
2024-03-20T09:00:21.882Z,1001.00
2024-03-20T09:01:21.904Z,977.00
2024-03-20T09:02:21.919Z,953.00
2024-03-20T09:03:21.866Z,955.00
2024-03-20T09:04:21.883Z,957.00
2024-03-20T09:05:21.895Z,921.00
2024-03-20T09:06:21.887Z,943.00
2024-03-20T09:07:22.043Z,904.00
2024-03-20T09:08:21.862Z,917.00
2024-03-20T09:09:21.938Z,902.00
2024-03-20T09:10:21.905Z,883.00
2024-03-20T09:11:21.894Z,872.00
2024-03-20T09:12:21.862Z,857.00
2024-03-20T09:13:21.893Z,855.00
2024-03-20T09:14:21.884Z,851.00
2024-03-20T09:15:21.939Z,818.00
2024-03-20T09:16:21.972Z,825.00
2024-03-20T09:17:21.936Z,790.00
2024-03-20T09:18:21.904Z,781.00
2024-03-20T09:19:22.018Z,773.00
2024-03-20T09:20:21.933Z,754.00
2024-03-20T09:21:21.923Z,772.00
2024-03-20T09:22:21.907Z,757.00
2024-03-20T09:23:21.929Z,754.00
2024-03-20T09:24:21.942Z,750.00
2024-03-20T09:25:21.942Z,747.00
2024-03-20T09:26:21.932Z,730.00
2024-03-20T09:27:21.909Z,722.00
2024-03-20T09:28:21.923Z,739.00
2024-03-20T09:30:22.047Z,713.00
2024-03-20T09:31:21.966Z,714.00
2024-03-20T09:32:21.977Z,701.00
2024-03-20T09:33:21.971Z,683.00
2024-03-20T09:34:21.974Z,663.00
2024-03-20T09:35:21.952Z,690.00
2024-03-20T09:36:21.924Z,671.00
2024-03-20T09:37:21.952Z,678.00
2024-03-20T09:38:21.926Z,681.00
2024-03-20T09:39:21.956Z,662.00
2024-03-20T09:40:21.944Z,665.00
2024-03-20T09:41:22.007Z,661.00
2024-03-20T09:42:22.108Z,662.00
2024-03-20T09:43:23.324Z,660.00
2024-03-20T09:44:22.139Z,656.00
2024-03-20T09:45:22.171Z,666.00
2024-03-20T09:46:22.244Z,681.00
2024-03-20T09:47:22.274Z,700.00
2024-03-20T09:48:32.767Z,716.00
2024-03-20T09:49:23.314Z,717.00
2024-03-20T09:50:22.331Z,720.00
2024-03-20T09:51:22.331Z,724.00
2024-03-20T09:52:22.342Z,732.00
2024-03-20T09:53:22.332Z,734.00
2024-03-20T09:54:22.335Z,754.00
2024-03-20T09:55:22.362Z,742.00
2024-03-20T09:56:22.352Z,743.00
2024-03-20T09:57:22.388Z,735.00
2024-03-20T09:58:22.366Z,733.00
2024-03-20T09:59:22.367Z,729.00
2024-03-20T10:00:22.372Z,722.00
2024-03-20T10:01:22.420Z,717.00
2024-03-20T10:02:22.499Z,704.00
2024-03-20T10:03:25.298Z,706.00
2024-03-20T10:04:22.552Z,695.00
2024-03-20T10:05:22.530Z,683.00
2024-03-20T10:06:22.548Z,672.00
2024-03-20T10:07:22.559Z,659.00
2024-03-20T10:08:22.565Z,658.00
2024-03-20T10:09:22.557Z,662.00
2024-03-20T10:10:22.565Z,653.00
2024-03-20T10:11:22.599Z,654.00
2024-03-20T10:12:22.584Z,659.00
2024-03-20T10:13:22.577Z,644.00
2024-03-20T10:14:22.586Z,642.00
2024-03-20T10:15:22.566Z,643.00
2024-03-20T10:16:26.858Z,644.00
2024-03-20T10:17:22.590Z,638.00
2024-03-20T10:18:22.622Z,632.00
2024-03-20T10:19:22.572Z,633.00
2024-03-20T10:20:22.576Z,638.00
2024-03-20T10:21:22.569Z,641.00
2024-03-20T10:22:22.575Z,639.00
2024-03-20T10:23:22.579Z,640.00
2024-03-20T10:24:22.581Z,647.00
2024-03-20T10:25:22.591Z,642.00
2024-03-20T10:26:22.596Z,645.00
2024-03-20T10:27:22.602Z,636.00
2024-03-20T10:28:24.010Z,638.00
2024-03-20T10:29:29.450Z,634.00
2024-03-20T10:30:28.417Z,638.00
2024-03-20T10:31:30.015Z,638.00
2024-03-20T10:32:23.615Z,638.00
2024-03-20T10:33:22.608Z,640.00
2024-03-20T10:34:22.604Z,643.00
2024-03-20T10:35:22.622Z,648.00
2024-03-20T10:36:22.623Z,650.00
2024-03-20T10:37:22.618Z,648.00
2024-03-20T10:38:23.330Z,639.00
2024-03-20T10:39:25.866Z,633.00
2024-03-20T10:40:22.626Z,629.00
2024-03-20T10:41:22.627Z,624.00
2024-03-20T10:42:22.633Z,619.00
2024-03-20T10:43:22.641Z,611.00
2024-03-20T10:44:22.629Z,611.00
2024-03-20T10:45:22.621Z,620.00
2024-03-20T10:46:22.625Z,623.00
2024-03-20T10:47:22.828Z,627.00
2024-03-20T10:48:22.644Z,639.00
2024-03-20T10:49:22.653Z,657.00
2024-03-20T10:50:22.625Z,721.00
2024-03-20T10:51:22.629Z,825.00
2024-03-20T10:52:22.633Z,911.00
2024-03-20T10:53:22.638Z,1001.00
2024-03-20T10:54:22.646Z,1039.00
2024-03-20T10:55:22.655Z,1092.00
2024-03-20T10:56:22.635Z,1170.00
2024-03-20T10:57:22.640Z,1233.00
2024-03-20T10:58:22.639Z,1310.00
2024-03-20T10:59:22.654Z,1354.00
2024-03-20T11:00:22.660Z,1407.00
2024-03-20T11:01:22.644Z,1411.00
2024-03-20T11:02:22.628Z,1435.00
2024-03-20T11:03:22.685Z,1493.00
2024-03-20T11:04:22.651Z,1436.00
2024-03-20T11:05:22.671Z,1451.00
2024-03-20T11:06:22.648Z,1432.00
2024-03-20T11:07:22.636Z,1440.00
2024-03-20T11:08:22.666Z,1430.00
2024-03-20T11:09:22.656Z,1428.00
2024-03-20T11:10:22.667Z,1433.00
2024-03-20T11:11:22.745Z,1438.00
2024-03-20T11:12:22.667Z,1464.00
2024-03-20T11:13:22.657Z,1468.00
2024-03-20T11:14:22.655Z,1462.00
2024-03-20T11:15:22.673Z,1471.00
2024-03-20T11:16:22.662Z,1486.00
2024-03-20T11:17:22.678Z,1459.00
2024-03-20T11:18:22.687Z,1491.00
2024-03-20T11:19:22.713Z,1502.00
2024-03-20T11:20:22.697Z,1533.00
2024-03-20T11:21:22.680Z,1543.00
2024-03-20T11:22:22.693Z,1558.00
2024-03-20T11:23:22.680Z,1590.00
2024-03-20T11:24:22.691Z,1595.00
2024-03-20T11:25:22.693Z,1602.00
2024-03-20T11:26:22.667Z,1616.00
2024-03-20T11:27:22.691Z,1620.00
2024-03-20T11:28:22.709Z,1634.00
2024-03-20T11:29:22.714Z,1642.00
2024-03-20T11:30:22.692Z,1645.00
2024-03-20T11:31:22.700Z,1653.00
2024-03-20T11:32:22.704Z,1654.00
2024-03-20T11:33:22.707Z,1656.00
2024-03-20T11:34:22.708Z,1658.00
2024-03-20T11:35:22.708Z,1673.00
2024-03-20T11:36:22.713Z,1671.00
2024-03-20T11:37:22.718Z,1690.00
2024-03-20T11:38:22.726Z,1688.00
2024-03-20T11:39:22.726Z,1699.00
2024-03-20T11:40:22.719Z,1685.00
2024-03-20T11:41:22.773Z,1695.00
2024-03-20T11:42:22.886Z,1714.00
2024-03-20T11:43:22.838Z,1699.00
2024-03-20T11:44:30.431Z,1687.00
2024-03-20T11:45:23.831Z,1687.00
2024-03-20T11:46:22.808Z,1685.00
2024-03-20T11:47:22.812Z,1668.00
2024-03-20T11:48:22.830Z,1664.00
2024-03-20T11:49:22.835Z,1662.00
2024-03-20T11:50:22.808Z,1646.00
2024-03-20T11:51:22.816Z,1575.00
2024-03-20T11:52:22.817Z,1566.00
2024-03-20T11:53:25.144Z,1555.00
2024-03-20T11:54:22.954Z,1478.00
2024-03-20T11:55:22.847Z,1478.00
2024-03-20T11:56:22.856Z,1497.00
2024-03-20T11:57:22.830Z,1463.00
2024-03-20T11:58:22.839Z,1478.00
2024-03-20T11:59:22.878Z,1467.00
2024-03-20T12:00:22.877Z,1423.00
2024-03-20T12:01:22.868Z,1413.00
2024-03-20T12:02:22.904Z,1404.00
2024-03-20T12:03:22.939Z,1385.00
2024-03-20T12:04:22.940Z,1347.00
2024-03-20T12:05:22.970Z,1342.00
2024-03-20T12:06:22.988Z,1323.00
2024-03-20T12:07:23.033Z,1318.00
2024-03-20T12:08:23.069Z,1319.00
2024-03-20T12:09:23.094Z,1319.00
2024-03-20T12:10:23.127Z,1302.00
2024-03-20T12:11:23.176Z,1281.00
2024-03-20T12:12:23.219Z,1251.00
2024-03-20T12:13:23.853Z,1259.00
2024-03-20T12:14:23.285Z,1229.00
2024-03-20T12:15:23.334Z,1214.00
2024-03-20T12:16:23.370Z,1215.00
2024-03-20T12:17:23.428Z,1199.00
2024-03-20T12:18:23.452Z,1190.00
2024-03-20T12:19:23.529Z,1170.00
2024-03-20T12:20:23.583Z,1179.00
2024-03-20T12:21:23.651Z,1167.00
2024-03-20T12:22:23.693Z,1155.00
2024-03-20T12:23:26.694Z,1126.00
2024-03-20T12:24:23.732Z,1102.00